createdAt,value
2023-01-17T00:01:34.980Z,6.20
2023-01-17T00:04:27.423Z,5.40
2023-01-17T00:09:58.046Z,6.40
2023-01-17T00:12:36.927Z,5.60
2023-01-17T00:15:17.569Z,5.90
2023-01-17T00:17:57.384Z,5.30
2023-01-17T00:20:53.044Z,5.50
2023-01-17T00:23:48.907Z,5.60
2023-01-17T00:26:24.186Z,5.80
2023-01-17T00:28:58.967Z,6.00
2023-01-17T00:31:32.238Z,5.30
2023-01-17T00:34:06.893Z,5.30
2023-01-17T00:36:40.188Z,5.10
2023-01-17T00:39:14.405Z,5.70
2023-01-17T00:41:47.803Z,5.40
2023-01-17T00:44:40.807Z,5.30
2023-01-17T00:47:36.612Z,5.20
2023-01-17T00:50:32.241Z,5.30
2023-01-17T00:53:27.620Z,5.00
2023-01-17T00:56:23.219Z,5.30
2023-01-17T00:59:17.787Z,5.30
2023-01-17T01:02:09.896Z,5.50
2023-01-17T01:05:04.098Z,5.00
2023-01-17T01:07:56.943Z,5.30
2023-01-17T01:10:49.012Z,5.20
2023-01-17T01:13:43.652Z,5.00
2023-01-17T01:16:36.839Z,5.20
2023-01-17T01:19:28.825Z,4.90
2023-01-17T01:22:20.640Z,5.30
2023-01-17T01:25:12.577Z,5.00
2023-01-17T01:28:04.889Z,5.10
2023-01-17T01:30:56.724Z,5.20
2023-01-17T01:33:30.004Z,4.90
2023-01-17T01:36:05.220Z,5.20
2023-01-17T01:38:40.765Z,4.90
2023-01-17T01:41:15.292Z,4.90
2023-01-17T01:43:52.607Z,5.20
2023-01-17T01:46:33.933Z,5.20
2023-01-17T01:49:16.445Z,5.10
2023-01-17T01:51:56.030Z,5.00
2023-01-17T01:54:35.057Z,5.10
2023-01-17T01:57:13.473Z,5.10
2023-01-17T01:59:56.725Z,5.50
2023-01-17T02:02:35.825Z,4.80
2023-01-17T02:05:20.636Z,5.10
2023-01-17T02:08:01.155Z,5.00
2023-01-17T02:10:44.128Z,4.80
2023-01-17T02:13:25.673Z,5.30
2023-01-17T02:16:14.027Z,5.30
2023-01-17T02:19:00.691Z,5.50
2023-01-17T02:21:39.867Z,5.00
2023-01-17T02:24:51.132Z,5.30
2023-01-17T02:27:42.382Z,5.00
2023-01-17T02:30:35.690Z,5.20
2023-01-17T02:33:21.625Z,5.00
2023-01-17T02:36:07.249Z,4.90
2023-01-17T02:38:48.939Z,5.10
2023-01-17T02:41:26.783Z,5.30
2023-01-17T02:44:01.268Z,5.20
2023-01-17T02:46:44.430Z,5.40
2023-01-17T02:49:19.665Z,5.00
2023-01-17T02:52:26.597Z,5.20
2023-01-17T02:55:19.941Z,5.40
2023-01-17T02:58:27.569Z,5.50
2023-01-17T03:01:16.249Z,5.10
2023-01-17T03:03:58.514Z,5.20
2023-01-17T03:09:13.548Z,5.10
2023-01-17T03:11:52.520Z,5.30
2023-01-17T03:14:30.527Z,5.40
2023-01-17T03:17:06.431Z,5.40
2023-01-17T03:19:41.317Z,5.00
2023-01-17T03:22:16.418Z,5.70
2023-01-17T03:24:51.487Z,4.80
2023-01-17T03:27:30.361Z,5.10
2023-01-17T03:30:09.697Z,5.10
2023-01-17T03:32:44.322Z,5.00
2023-01-17T03:35:19.868Z,5.10
2023-01-17T03:37:54.187Z,5.20
2023-01-17T03:40:28.920Z,4.90
2023-01-17T03:43:04.058Z,5.10
2023-01-17T03:45:39.409Z,5.10
2023-01-17T03:48:14.279Z,4.80
2023-01-17T03:50:51.163Z,5.40
2023-01-17T03:53:25.738Z,5.10
2023-01-17T03:56:00.298Z,5.10
2023-01-17T03:58:34.885Z,5.00
2023-01-17T04:01:09.396Z,4.90
2023-01-17T04:03:44.602Z,4.90
2023-01-17T04:06:18.618Z,5.00
2023-01-17T04:08:53.251Z,5.10
2023-01-17T04:11:27.666Z,5.10
2023-01-17T04:14:03.026Z,4.50
2023-01-17T04:16:37.949Z,5.40
2023-01-17T04:19:14.965Z,5.20
2023-01-17T04:21:49.496Z,5.30
2023-01-17T04:24:23.871Z,5.50
2023-01-17T04:26:58.098Z,5.00
2023-01-17T04:29:32.533Z,4.90
2023-01-17T04:32:10.332Z,5.50
2023-01-17T04:34:45.183Z,5.00
2023-01-17T04:37:19.661Z,5.00
2023-01-17T04:39:54.436Z,4.90
2023-01-17T04:42:31.162Z,5.00
2023-01-17T04:45:10.086Z,5.10
2023-01-17T04:47:47.218Z,5.30
2023-01-17T04:50:24.505Z,5.00
2023-01-17T04:52:58.879Z,5.10
2023-01-17T04:55:36.176Z,4.80
2023-01-17T04:58:10.879Z,4.90
2023-01-17T05:00:45.315Z,4.50
2023-01-17T05:03:20.706Z,4.60
2023-01-17T05:05:54.772Z,5.10
2023-01-17T05:08:30.633Z,4.60
2023-01-17T05:11:05.049Z,5.20
2023-01-17T05:13:39.075Z,4.60
2023-01-17T05:16:15.734Z,4.90
2023-01-17T05:18:56.305Z,4.90
2023-01-17T05:21:31.665Z,5.60
2023-01-17T05:24:07.447Z,4.90
2023-01-17T05:26:43.195Z,5.30
2023-01-17T05:29:17.616Z,5.40
2023-01-17T05:31:51.921Z,4.90
2023-01-17T05:34:26.409Z,4.90
2023-01-17T05:37:03.749Z,5.80
2023-01-17T05:39:38.048Z,5.20
2023-01-17T05:42:13.256Z,5.60
2023-01-17T05:44:48.091Z,5.50
2023-01-17T05:47:22.461Z,5.40
2023-01-17T05:50:00.476Z,5.40
2023-01-17T05:52:38.564Z,5.20
2023-01-17T05:55:18.157Z,5.30
2023-01-17T05:57:53.296Z,5.20
2023-01-17T06:00:33.345Z,5.30
2023-01-17T06:03:07.986Z,5.50
2023-01-17T06:05:42.939Z,5.80
2023-01-17T06:08:23.876Z,6.30
2023-01-17T06:10:59.944Z,5.60
2023-01-17T06:13:37.482Z,7.20
2023-01-17T06:16:16.186Z,6.40
2023-01-17T06:18:50.878Z,5.90
2023-01-17T06:21:25.253Z,5.80
2023-01-17T06:24:05.225Z,5.90
2023-01-17T06:26:39.927Z,6.30
2023-01-17T06:29:17.938Z,6.20
2023-01-17T06:31:52.613Z,6.10
2023-01-17T06:34:28.429Z,5.60
2023-01-17T06:37:03.481Z,6.50
2023-01-17T06:39:38.274Z,5.80
2023-01-17T06:42:15.102Z,6.20
2023-01-17T06:44:49.688Z,5.50
2023-01-17T06:47:27.531Z,5.90
2023-01-17T06:50:03.687Z,6.10
2023-01-17T06:52:38.138Z,6.10
2023-01-17T06:55:16.637Z,6.40
2023-01-17T06:57:52.944Z,6.70
2023-01-17T07:00:30.467Z,5.90
2023-01-17T07:03:08.955Z,6.10
2023-01-17T07:05:45.083Z,6.60
2023-01-17T07:08:20.708Z,5.40
2023-01-17T07:11:04.089Z,6.30
2023-01-17T07:13:41.530Z,6.60
2023-01-17T07:16:17.255Z,6.20
2023-01-17T07:18:52.226Z,5.20
2023-01-17T07:21:27.301Z,5.70
2023-01-17T07:24:01.346Z,5.60
2023-01-17T07:26:38.031Z,5.50
2023-01-17T07:29:13.025Z,5.50
2023-01-17T07:31:49.630Z,6.30
2023-01-17T07:34:23.785Z,5.60
2023-01-17T07:36:59.306Z,5.60
2023-01-17T07:39:34.723Z,5.90
2023-01-17T07:42:09.727Z,6.20
2023-01-17T07:44:45.273Z,5.60
2023-01-17T07:47:22.182Z,5.80
2023-01-17T07:49:59.163Z,5.90
2023-01-17T07:52:36.070Z,5.40
2023-01-17T07:55:19.280Z,5.20
2023-01-17T07:57:55.315Z,6.00
2023-01-17T08:00:30.872Z,5.70
2023-01-17T08:03:06.239Z,5.70
2023-01-17T08:05:39.915Z,5.90
2023-01-17T08:08:16.495Z,5.70
2023-01-17T08:10:53.584Z,5.10
2023-01-17T08:13:29.780Z,5.60
2023-01-17T08:16:04.313Z,5.10
2023-01-17T08:18:38.614Z,4.80
2023-01-17T08:21:20.914Z,5.50
2023-01-17T08:23:55.721Z,5.40
2023-01-17T08:26:32.720Z,5.00
2023-01-17T08:29:07.192Z,5.70
2023-01-17T08:31:42.863Z,5.00
2023-01-17T08:34:18.210Z,5.20
2023-01-17T08:36:55.324Z,5.40
2023-01-17T08:39:29.333Z,5.90
2023-01-17T08:42:03.326Z,6.60
2023-01-17T08:44:38.839Z,6.10
2023-01-17T08:47:13.090Z,5.80
2023-01-17T08:49:49.497Z,5.80
2023-01-17T08:52:25.896Z,5.40
2023-01-17T08:55:00.010Z,5.10
2023-01-17T08:57:35.729Z,6.10
2023-01-17T09:00:15.535Z,6.00
2023-01-17T09:02:52.392Z,6.30
2023-01-17T09:05:26.431Z,5.50
2023-01-17T09:08:00.662Z,5.80
2023-01-17T09:10:35.032Z,5.90
2023-01-17T09:13:13.178Z,5.50
2023-01-17T09:15:47.511Z,5.20
2023-01-17T09:18:23.505Z,5.70
2023-01-17T09:20:59.331Z,5.60
2023-01-17T09:23:34.731Z,5.30
2023-01-17T09:26:09.392Z,5.20
2023-01-17T09:28:45.221Z,5.50
2023-01-17T09:31:23.227Z,5.80
2023-01-17T09:34:01.407Z,5.50
2023-01-17T09:36:37.002Z,6.70
2023-01-17T09:39:15.238Z,5.60
2023-01-17T09:42:02.892Z,5.60
2023-01-17T09:44:47.337Z,6.20
2023-01-17T09:47:33.060Z,5.90
2023-01-17T09:50:25.110Z,6.90
2023-01-17T09:53:03.919Z,5.50
2023-01-17T09:55:43.506Z,6.00
2023-01-17T09:58:25.164Z,5.80
2023-01-17T10:01:16.397Z,5.70
2023-01-17T10:04:09.975Z,5.40
2023-01-17T10:07:11.041Z,5.40
2023-01-17T10:10:11.553Z,5.40
2023-01-17T10:13:00.873Z,5.80
2023-01-17T10:15:52.919Z,5.10
2023-01-17T10:19:00.488Z,5.60
2023-01-17T10:22:07.898Z,5.70
2023-01-17T10:25:07.029Z,5.80
2023-01-17T10:27:47.127Z,5.00
2023-01-17T10:30:38.265Z,5.20
2023-01-17T10:33:21.715Z,5.10
2023-01-17T10:36:02.529Z,6.00
2023-01-17T10:38:43.542Z,4.90
2023-01-17T10:41:25.742Z,5.40
2023-01-17T10:44:09.183Z,5.40
2023-01-17T10:46:49.123Z,5.90
2023-01-17T10:49:28.585Z,5.80
2023-01-17T10:52:17.413Z,5.50
2023-01-17T10:55:21.661Z,5.20
2023-01-17T10:57:59.106Z,5.10
2023-01-17T11:00:44.828Z,5.80
2023-01-17T11:03:25.544Z,6.00
2023-01-17T11:06:22.111Z,5.70
2023-01-17T11:08:58.539Z,5.20
2023-01-17T11:11:42.894Z,4.90
2023-01-17T11:14:25.963Z,5.20
2023-01-17T11:17:10.153Z,5.00
2023-01-17T11:19:47.884Z,4.80
2023-01-17T11:22:22.741Z,5.90
2023-01-17T11:25:00.317Z,4.90
2023-01-17T11:27:37.748Z,5.60
2023-01-17T11:30:24.053Z,4.70
2023-01-17T11:33:06.517Z,5.20
2023-01-17T11:35:47.491Z,6.50
2023-01-17T11:38:24.983Z,4.70
2023-01-17T11:41:21.459Z,5.90
2023-01-17T11:43:58.660Z,5.30
2023-01-17T11:46:34.378Z,5.00
2023-01-17T11:49:10.246Z,5.00
2023-01-17T11:51:46.975Z,5.20
2023-01-17T11:54:28.614Z,4.90
2023-01-17T11:57:04.403Z,5.20
2023-01-17T11:59:42.481Z,4.90
2023-01-17T12:03:01.658Z,4.70
2023-01-17T12:05:53.718Z,5.00
2023-01-17T12:08:52.837Z,4.90
2023-01-17T12:12:05.292Z,4.90
2023-01-17T12:14:51.705Z,4.80
2023-01-17T12:17:47.863Z,5.00
2023-01-17T12:20:33.253Z,5.40
2023-01-17T12:23:26.383Z,5.50
2023-01-17T12:26:22.205Z,4.70
2023-01-17T12:32:53.059Z,5.00
2023-01-17T12:35:32.092Z,5.10
2023-01-17T12:38:18.060Z,5.30
2023-01-17T12:41:04.834Z,4.90
2023-01-17T12:43:39.970Z,4.80
2023-01-17T12:46:23.185Z,4.60
2023-01-17T12:48:59.453Z,4.90
2023-01-17T12:51:33.723Z,4.70
2023-01-17T12:54:16.232Z,5.60
2023-01-17T12:56:54.307Z,4.80
2023-01-17T12:59:34.996Z,4.60
2023-01-17T13:02:20.957Z,5.40
2023-01-17T13:04:59.299Z,5.90
2023-01-17T13:07:44.227Z,5.90
2023-01-17T13:10:26.208Z,5.10
2023-01-17T13:13:02.628Z,5.40
2023-01-17T13:15:46.307Z,5.40
2023-01-17T13:18:25.121Z,6.80
2023-01-17T13:21:21.299Z,6.10
2023-01-17T13:24:12.450Z,7.40
2023-01-17T13:27:00.665Z,6.10
2023-01-17T13:29:44.568Z,7.10
2023-01-17T13:32:42.274Z,6.30
2023-01-17T13:35:28.820Z,6.10
2023-01-17T13:38:42.335Z,5.90
2023-01-17T13:41:43.409Z,6.80
2023-01-17T13:44:24.075Z,5.90
2023-01-17T13:47:09.043Z,6.10
2023-01-17T13:49:50.985Z,5.70
2023-01-17T13:52:33.721Z,6.00
2023-01-17T13:55:07.669Z,6.40
2023-01-17T13:57:46.063Z,6.30
2023-01-17T14:01:03.430Z,6.50
2023-01-17T14:04:06.551Z,6.10
2023-01-17T14:06:44.033Z,6.60
2023-01-17T14:09:25.132Z,6.20
2023-01-17T14:12:23.197Z,6.00
2023-01-17T14:14:56.486Z,5.80
2023-01-17T14:17:58.486Z,6.90
2023-01-17T14:20:54.388Z,5.80
2023-01-17T14:23:53.265Z,6.50
2023-01-17T14:26:36.609Z,6.00
2023-01-17T14:29:52.241Z,6.20
2023-01-17T14:32:26.577Z,6.30
2023-01-17T14:34:56.953Z,5.90
2023-01-17T14:37:44.575Z,5.70
2023-01-17T14:40:25.982Z,5.90
2023-01-17T14:43:03.397Z,5.40
2023-01-17T14:45:35.325Z,5.80
2023-01-17T14:48:18.118Z,6.20
2023-01-17T14:50:56.667Z,5.80
2023-01-17T14:53:29.934Z,5.80
2023-01-17T14:56:03.093Z,5.50
2023-01-17T14:58:36.044Z,5.80
2023-01-17T15:01:10.730Z,6.20
2023-01-17T15:03:47.978Z,6.10
2023-01-17T15:06:35.862Z,5.40
2023-01-17T15:09:17.641Z,6.20
2023-01-17T15:11:53.196Z,5.80
2023-01-17T15:14:33.093Z,5.40
2023-01-17T15:17:23.806Z,6.30
2023-01-17T15:20:00.885Z,6.00
2023-01-17T15:22:33.972Z,5.90
2023-01-17T15:25:08.568Z,5.80
2023-01-17T15:27:40.925Z,5.80
2023-01-17T15:30:17.740Z,6.50
2023-01-17T15:32:50.623Z,6.10
2023-01-17T15:35:22.235Z,6.10
2023-01-17T15:37:58.325Z,6.10
2023-01-17T15:40:37.940Z,6.10
2023-01-17T15:43:31.560Z,6.30
2023-01-17T15:46:07.420Z,5.80
2023-01-17T15:48:44.237Z,6.30
2023-01-17T15:51:38.403Z,6.50
2023-01-17T15:54:35.821Z,5.60
2023-01-17T15:57:27.677Z,5.60
2023-01-17T16:00:03.417Z,6.10
2023-01-17T16:02:49.638Z,6.60
2023-01-17T16:05:46.267Z,6.00
2023-01-17T16:08:39.206Z,5.80
2023-01-17T16:11:13.047Z,5.40
2023-01-17T16:13:46.809Z,6.20
2023-01-17T16:16:21.662Z,6.10
2023-01-17T16:19:04.848Z,6.60
2023-01-17T16:21:44.603Z,5.90
2023-01-17T16:24:17.326Z,6.50
2023-01-17T16:26:55.214Z,5.80
2023-01-17T16:29:30.097Z,6.00
2023-01-17T16:32:08.224Z,6.00
2023-01-17T16:34:41.608Z,6.20
2023-01-17T16:37:12.745Z,6.40
2023-01-17T16:39:47.348Z,6.50
2023-01-17T16:42:23.000Z,6.50
2023-01-17T16:44:55.478Z,6.40
2023-01-17T16:47:34.714Z,5.80
2023-01-17T16:50:05.971Z,6.30
2023-01-17T16:52:41.606Z,6.70
2023-01-17T16:55:20.715Z,6.30
2023-01-17T16:57:54.491Z,6.40
2023-01-17T17:00:26.566Z,6.60
2023-01-17T17:05:33.027Z,7.20
2023-01-17T17:08:02.770Z,7.30
2023-01-17T17:10:35.761Z,7.10
2023-01-17T17:13:08.445Z,7.50
2023-01-17T17:15:44.463Z,7.30
2023-01-17T17:18:18.070Z,7.80
2023-01-17T17:20:50.156Z,6.90
2023-01-17T17:23:28.180Z,7.00
2023-01-17T17:26:03.423Z,7.40
2023-01-17T17:28:36.262Z,7.80
2023-01-17T17:31:10.729Z,7.20
2023-01-17T17:33:47.771Z,7.20
2023-01-17T17:36:19.674Z,7.30
2023-01-17T17:38:53.835Z,7.70
2023-01-17T17:41:25.862Z,7.80
2023-01-17T17:43:56.548Z,7.40
2023-01-17T17:46:36.377Z,8.20
2023-01-17T17:49:16.321Z,8.30
2023-01-17T17:51:46.112Z,9.50
2023-01-17T17:56:50.359Z,8.90
2023-01-17T17:59:21.143Z,9.10
2023-01-17T18:01:54.420Z,8.50
2023-01-17T18:04:27.978Z,9.10
2023-01-17T18:06:59.747Z,8.40
2023-01-17T18:12:08.194Z,8.80
2023-01-17T18:14:39.896Z,9.10
2023-01-17T18:17:15.234Z,9.50
2023-01-17T18:19:51.964Z,9.40
2023-01-17T18:22:22.962Z,9.00
2023-01-17T18:24:57.893Z,9.60
2023-01-17T18:27:36.713Z,9.30
2023-01-17T18:30:13.667Z,9.40
2023-01-17T18:32:49.551Z,9.20
2023-01-17T18:35:21.825Z,9.80
2023-01-17T18:38:01.719Z,9.60
2023-01-17T18:40:37.481Z,9.40
2023-01-17T18:43:09.844Z,9.40
2023-01-17T18:45:47.241Z,9.30
2023-01-17T18:48:16.958Z,9.80
2023-01-17T18:50:57.053Z,9.40
2023-01-17T18:53:33.788Z,10.80
2023-01-17T18:56:11.322Z,10.10
2023-01-17T18:58:44.099Z,10.40
2023-01-17T19:01:21.697Z,10.40
2023-01-17T19:03:57.780Z,9.20
2023-01-17T19:06:33.471Z,9.70
2023-01-17T19:09:03.565Z,10.10
2023-01-17T19:11:33.491Z,9.70
2023-01-17T19:14:03.529Z,10.90
2023-01-17T19:16:35.872Z,10.10
2023-01-17T19:19:15.148Z,10.50
2023-01-17T19:21:46.089Z,10.00
2023-01-17T19:24:19.688Z,10.30
2023-01-17T19:26:53.438Z,10.60
2023-01-17T19:29:23.360Z,9.60
2023-01-17T19:31:56.171Z,10.40
2023-01-17T19:34:29.697Z,9.70
2023-01-17T19:37:05.450Z,10.40
2023-01-17T19:39:38.897Z,10.90
2023-01-17T19:42:15.112Z,11.30
2023-01-17T19:44:47.844Z,10.50
2023-01-17T19:47:24.539Z,11.10
2023-01-17T19:49:54.390Z,12.80
2023-01-17T19:52:26.865Z,11.00
2023-01-17T19:55:01.804Z,10.80
2023-01-17T19:57:34.431Z,11.20
2023-01-17T20:00:08.799Z,11.30
2023-01-17T20:02:42.942Z,11.00
2023-01-17T20:05:21.893Z,11.60
2023-01-17T20:07:51.705Z,11.30
2023-01-17T20:10:21.573Z,12.60
2023-01-17T20:12:51.959Z,12.20
2023-01-17T20:15:23.718Z,12.00
2023-01-17T20:20:23.248Z,11.40
2023-01-17T20:22:55.624Z,11.20
2023-01-17T20:25:25.500Z,11.60
2023-01-17T20:27:55.864Z,11.80
2023-01-17T20:30:29.626Z,11.40
2023-01-17T20:33:04.826Z,11.30
2023-01-17T20:35:35.128Z,11.90
2023-01-17T20:38:07.207Z,11.70
2023-01-17T20:43:09.661Z,12.10
2023-01-17T20:45:40.121Z,12.40
2023-01-17T20:48:10.276Z,12.10
2023-01-17T20:50:41.069Z,12.70
2023-01-17T20:53:19.261Z,12.30
2023-01-17T20:55:57.351Z,13.60
2023-01-17T20:58:27.647Z,13.00
2023-01-17T21:01:01.102Z,13.30
2023-01-17T21:03:34.444Z,13.00
2023-01-17T21:06:11.027Z,12.70
2023-01-17T21:08:43.650Z,12.80
2023-01-17T21:11:21.800Z,14.30
2023-01-17T21:13:53.102Z,12.80
2023-01-17T21:16:31.871Z,13.60
2023-01-17T21:19:05.155Z,12.90
2023-01-17T21:21:38.366Z,12.50
2023-01-17T21:24:15.808Z,13.20
2023-01-17T21:26:47.059Z,13.20
2023-01-17T21:29:25.269Z,13.50
2023-01-17T21:31:55.968Z,14.40
2023-01-17T21:34:29.095Z,12.90
2023-01-17T21:37:01.603Z,13.50
2023-01-17T21:39:32.359Z,13.70
2023-01-17T21:42:04.994Z,13.80
2023-01-17T21:44:37.471Z,14.20
2023-01-17T21:47:10.324Z,12.80
2023-01-17T21:49:42.930Z,14.30
2023-01-17T21:52:19.927Z,13.50
2023-01-17T21:55:10.718Z,13.30
2023-01-17T21:58:01.770Z,14.40
2023-01-17T22:00:32.563Z,14.40
2023-01-17T22:03:13.019Z,15.60
2023-01-17T22:05:47.447Z,13.40
2023-01-17T22:08:20.239Z,14.20
2023-01-17T22:10:53.073Z,14.20
2023-01-17T22:13:32.620Z,15.20
2023-01-17T22:16:08.367Z,15.50
2023-01-17T22:18:41.702Z,14.30
2023-01-17T22:21:17.399Z,15.30
2023-01-17T22:23:52.805Z,15.00
2023-01-17T22:26:27.895Z,13.80
2023-01-17T22:29:04.680Z,14.60
2023-01-17T22:31:44.845Z,14.70
2023-01-17T22:34:18.426Z,14.30
2023-01-17T22:36:50.497Z,14.30
2023-01-17T22:39:26.806Z,14.60
2023-01-17T22:42:01.345Z,14.80
2023-01-17T22:44:31.739Z,14.20
2023-01-17T22:47:02.573Z,14.60
2023-01-17T22:49:34.740Z,13.20
2023-01-17T22:52:07.402Z,14.00
2023-01-17T22:54:39.061Z,14.80
2023-01-17T22:57:09.246Z,13.70
2023-01-17T22:59:39.639Z,13.80
2023-01-17T23:02:09.895Z,14.30
2023-01-17T23:04:42.271Z,13.90
2023-01-17T23:07:15.004Z,13.50
2023-01-17T23:09:48.153Z,14.30
2023-01-17T23:12:28.307Z,13.50
2023-01-17T23:15:21.856Z,14.70
2023-01-17T23:18:19.099Z,13.00
2023-01-17T23:20:51.087Z,14.00
2023-01-17T23:23:26.921Z,13.00
2023-01-17T23:26:04.719Z,14.00
2023-01-17T23:28:35.099Z,14.40
2023-01-17T23:31:05.783Z,14.00
2023-01-17T23:33:35.410Z,13.70
2023-01-17T23:36:08.741Z,13.50
2023-01-17T23:38:43.057Z,13.60
2023-01-17T23:41:30.890Z,14.20
2023-01-17T23:44:01.198Z,14.00
2023-01-17T23:46:31.652Z,12.80
2023-01-17T23:49:03.667Z,13.00
2023-01-17T23:51:34.633Z,14.00
2023-01-17T23:54:08.732Z,13.50
2023-01-17T23:56:41.456Z,13.30
2023-01-17T23:59:11.117Z,13.60
